createdAt,value
2023-04-15T00:06:00.179Z,10.02
2023-04-15T00:16:09.175Z,8.43
2023-04-15T00:26:13.621Z,9.98
2023-04-15T00:36:15.813Z,8.18
2023-04-15T00:46:20.842Z,10.38
2023-04-15T00:56:24.629Z,10.18
2023-04-15T01:06:32.533Z,11.20
2023-04-15T01:16:34.658Z,10.60
2023-04-15T01:26:38.865Z,10.63
2023-04-15T01:36:42.193Z,8.82
2023-04-15T01:46:44.126Z,8.98
2023-04-15T01:56:46.020Z,10.18
2023-04-15T02:06:47.973Z,10.10
2023-04-15T02:16:49.920Z,10.00
2023-04-15T02:26:58.582Z,11.02
2023-04-15T02:37:00.745Z,10.55
2023-04-15T02:47:03.741Z,9.73
2023-04-15T02:57:07.055Z,11.00
2023-04-15T03:07:09.975Z,10.57
2023-04-15T03:17:11.857Z,8.95
2023-04-15T03:27:14.018Z,10.80
2023-04-15T03:37:15.875Z,9.68
2023-04-15T03:47:17.720Z,9.65
2023-04-15T03:57:19.597Z,10.07
2023-04-15T04:07:24.274Z,11.10
2023-04-15T04:17:26.339Z,9.95
2023-04-15T04:27:30.228Z,9.75
2023-04-15T04:37:32.189Z,8.82
2023-04-15T04:47:38.141Z,9.98
2023-04-15T04:57:40.037Z,11.20
2023-04-15T05:07:42.358Z,10.48
2023-04-15T05:17:44.955Z,10.73
2023-04-15T05:27:47.048Z,14.30
2023-04-15T05:37:48.974Z,10.52
2023-04-15T05:47:53.963Z,9.73
2023-04-15T05:57:56.111Z,10.02
2023-04-15T06:07:58.068Z,8.55
2023-04-15T06:18:00.198Z,10.82
2023-04-15T06:28:02.154Z,8.63
2023-04-15T06:38:04.118Z,7.68
2023-04-15T06:48:23.477Z,8.02
2023-04-15T06:58:34.280Z,8.38
2023-04-15T07:08:37.346Z,7.50
2023-04-15T07:18:39.357Z,6.70
2023-04-15T07:28:41.817Z,5.93
2023-04-15T07:38:43.758Z,7.70
2023-04-15T07:48:48.794Z,6.60
2023-04-15T07:58:52.777Z,4.97
2023-04-15T08:08:57.228Z,5.90
2023-04-15T08:18:59.271Z,5.32
2023-04-15T08:29:03.449Z,4.72
2023-04-15T08:39:05.590Z,5.03
2023-04-15T08:49:11.104Z,5.00
2023-04-15T08:59:15.176Z,5.88
2023-04-15T09:09:23.221Z,5.32
2023-04-15T09:19:33.900Z,4.15
2023-04-15T09:29:37.453Z,3.83
2023-04-15T09:39:50.299Z,4.13
2023-04-15T09:49:59.501Z,3.42
2023-04-15T10:00:08.480Z,4.28
2023-04-15T10:10:11.861Z,4.07
2023-04-15T10:20:30.260Z,4.25
2023-04-15T10:30:34.015Z,3.65
2023-04-15T10:40:40.177Z,3.28
2023-04-15T10:50:56.089Z,2.88
2023-04-15T11:01:02.980Z,4.03
2023-04-15T11:11:14.205Z,6.10
2023-04-15T11:21:16.708Z,5.82
2023-04-15T11:31:20.384Z,5.28
2023-04-15T11:41:23.901Z,4.07
2023-04-15T11:51:42.838Z,4.20
2023-04-15T12:01:47.847Z,5.10
2023-04-15T12:12:19.041Z,5.45
2023-04-15T12:22:22.459Z,2.70
2023-04-15T12:32:28.635Z,3.33
2023-04-15T12:42:30.592Z,3.70
2023-04-15T12:52:41.445Z,2.92
2023-04-15T13:02:44.879Z,3.38
2023-04-15T13:13:03.395Z,3.85
2023-04-15T13:23:05.298Z,3.13
2023-04-15T13:33:07.367Z,3.08
2023-04-15T13:43:15.254Z,3.05
2023-04-15T13:53:17.332Z,2.67
2023-04-15T14:03:19.385Z,2.85
2023-04-15T14:13:21.593Z,1.98
2023-04-15T14:23:24.022Z,2.78
2023-04-15T14:33:26.257Z,3.63
2023-04-15T14:43:28.299Z,4.00
2023-04-15T14:53:38.900Z,2.83
2023-04-15T15:04:18.526Z,3.15
2023-04-15T15:14:22.336Z,2.45
2023-04-15T15:24:27.355Z,3.00
2023-04-15T15:34:29.392Z,3.15
2023-04-15T15:44:38.605Z,4.03
2023-04-15T15:54:41.480Z,2.85
2023-04-15T16:04:43.887Z,3.58
2023-04-15T16:15:07.705Z,2.33
2023-04-15T16:25:11.058Z,4.15
2023-04-15T16:35:22.270Z,3.20
2023-04-15T16:45:24.874Z,4.75
2023-04-15T16:55:27.290Z,3.08
2023-04-15T17:05:54.938Z,3.72
2023-04-15T17:16:02.992Z,3.97
2023-04-15T17:26:15.762Z,3.28
2023-04-15T17:36:18.596Z,3.72
2023-04-15T17:46:25.170Z,9.30
2023-04-15T17:56:29.474Z,4.72
2023-04-15T18:06:36.128Z,5.40
2023-04-15T18:16:50.888Z,3.58
2023-04-15T18:26:54.021Z,5.30
2023-04-15T18:37:00.935Z,4.65
2023-04-15T18:47:06.780Z,4.35
2023-04-15T18:57:09.388Z,4.00
2023-04-15T19:07:13.953Z,4.10
2023-04-15T19:17:19.243Z,9.93
2023-04-15T19:27:25.485Z,6.63
2023-04-15T19:37:36.991Z,9.65
2023-04-15T19:47:48.793Z,4.00
2023-04-15T19:57:57.311Z,4.35
2023-04-15T20:08:02.083Z,4.30
2023-04-15T20:18:06.255Z,5.40
2023-04-15T20:28:08.678Z,3.40
2023-04-15T20:38:11.276Z,3.30
2023-04-15T20:48:16.953Z,3.92
2023-04-15T20:58:21.415Z,3.83
2023-04-15T21:08:29.522Z,4.57
2023-04-15T21:18:32.927Z,3.97
2023-04-15T21:28:35.271Z,4.15
2023-04-15T21:38:37.165Z,2.88
2023-04-15T21:48:40.357Z,3.55
2023-04-15T21:58:42.241Z,3.40
2023-04-15T22:08:55.327Z,4.65
2023-04-15T22:18:59.303Z,7.57
2023-04-15T22:29:02.225Z,4.38
2023-04-15T22:39:04.819Z,5.25
2023-04-15T22:49:10.494Z,3.05
2023-04-15T22:59:12.379Z,3.00
2023-04-15T23:09:14.349Z,3.70
2023-04-15T23:19:16.543Z,3.67
2023-04-15T23:29:18.544Z,4.50
2023-04-15T23:39:20.976Z,4.05
2023-04-15T23:49:22.920Z,4.07
2023-04-15T23:59:24.832Z,4.28
